createdAt,value
2022-11-30T00:01:15.876Z,4.58
2022-11-30T00:03:42.945Z,4.30
2022-11-30T00:06:12.798Z,4.47
2022-11-30T00:08:40.026Z,4.39
2022-11-30T00:11:13.807Z,4.69
2022-11-30T00:13:42.089Z,4.19
2022-11-30T00:16:09.914Z,4.48
2022-11-30T00:18:37.772Z,4.32
2022-11-30T00:21:11.139Z,4.39
2022-11-30T00:23:40.684Z,4.26
2022-11-30T00:26:09.908Z,4.16
2022-11-30T00:28:38.804Z,4.22
2022-11-30T00:31:08.918Z,4.18
2022-11-30T00:33:38.391Z,4.25
2022-11-30T00:36:13.506Z,4.37
2022-11-30T00:38:40.613Z,4.29
2022-11-30T00:41:07.848Z,4.56
2022-11-30T00:43:35.018Z,4.52
2022-11-30T00:46:02.017Z,4.59
2022-11-30T00:48:29.383Z,4.44
2022-11-30T00:50:56.504Z,4.41
2022-11-30T00:53:23.783Z,4.45
2022-11-30T00:55:50.958Z,4.44
2022-11-30T00:58:18.048Z,4.21
2022-11-30T01:00:45.054Z,4.30
2022-11-30T01:03:12.565Z,4.27
2022-11-30T01:05:39.925Z,4.54
2022-11-30T01:08:09.182Z,4.23
2022-11-30T01:10:37.978Z,4.26
2022-11-30T01:13:05.294Z,4.44
2022-11-30T01:15:36.279Z,4.55
2022-11-30T01:18:03.382Z,4.61
2022-11-30T01:20:30.409Z,4.60
2022-11-30T01:22:57.277Z,4.58
2022-11-30T01:25:24.396Z,4.54
2022-11-30T01:27:51.662Z,4.70
2022-11-30T01:30:19.074Z,4.19
2022-11-30T01:32:46.194Z,4.64
2022-11-30T01:35:13.350Z,4.34
2022-11-30T01:37:40.326Z,4.72
2022-11-30T01:40:08.546Z,4.78
2022-11-30T01:42:38.148Z,4.73
2022-11-30T01:45:07.471Z,4.66
2022-11-30T01:47:42.334Z,4.45
2022-11-30T01:50:15.385Z,4.76
2022-11-30T01:52:50.836Z,4.36
2022-11-30T01:55:32.004Z,4.96
2022-11-30T01:58:12.458Z,4.93
2022-11-30T02:00:44.286Z,4.72
2022-11-30T02:03:41.665Z,4.79
2022-11-30T02:06:08.751Z,4.52
2022-11-30T02:08:35.792Z,4.51
2022-11-30T02:11:11.371Z,4.76
2022-11-30T02:13:57.110Z,4.76
2022-11-30T02:16:48.649Z,4.82
2022-11-30T02:19:53.163Z,4.60
2022-11-30T02:23:00.857Z,4.77
2022-11-30T02:25:43.391Z,4.73
2022-11-30T02:28:13.245Z,4.76
2022-11-30T02:30:45.247Z,4.74
2022-11-30T02:33:16.748Z,4.57
2022-11-30T02:35:51.627Z,4.74
2022-11-30T02:38:23.843Z,4.58
2022-11-30T02:40:51.162Z,4.63
2022-11-30T02:43:24.278Z,4.63
2022-11-30T02:46:09.325Z,4.67
2022-11-30T02:49:01.681Z,4.72
2022-11-30T02:51:31.209Z,4.47
2022-11-30T02:53:58.380Z,4.06
2022-11-30T02:56:25.985Z,4.39
2022-11-30T02:58:53.098Z,4.39
2022-11-30T03:01:20.196Z,4.61
2022-11-30T03:03:47.469Z,4.70
2022-11-30T03:06:14.656Z,3.76
2022-11-30T03:08:41.563Z,4.73
2022-11-30T03:11:08.616Z,4.45
2022-11-30T03:13:35.518Z,4.45
2022-11-30T03:16:10.931Z,4.48
2022-11-30T03:18:40.317Z,4.68
2022-11-30T03:21:12.419Z,4.65
2022-11-30T03:23:40.977Z,4.62
2022-11-30T03:26:09.154Z,4.55
2022-11-30T03:28:37.494Z,4.40
2022-11-30T03:31:05.909Z,4.43
2022-11-30T03:33:33.179Z,4.36
2022-11-30T03:36:05.538Z,4.24
2022-11-30T03:38:33.174Z,4.48
2022-11-30T03:41:05.012Z,4.19
2022-11-30T03:43:32.577Z,3.98
2022-11-30T03:45:59.599Z,4.22
2022-11-30T03:48:26.848Z,4.44
2022-11-30T03:50:54.150Z,4.20
2022-11-30T03:53:22.627Z,4.37
2022-11-30T03:55:58.128Z,4.22
2022-11-30T03:58:26.157Z,4.26
2022-11-30T04:01:00.363Z,4.21
2022-11-30T04:03:27.778Z,4.25
2022-11-30T04:05:54.734Z,4.47
2022-11-30T04:08:22.428Z,4.54
2022-11-30T04:10:57.654Z,4.51
2022-11-30T04:13:25.709Z,4.52
2022-11-30T04:15:54.024Z,4.51
2022-11-30T04:18:22.997Z,4.62
2022-11-30T04:20:55.563Z,4.45
2022-11-30T04:23:24.442Z,4.38
2022-11-30T04:25:52.121Z,4.11
2022-11-30T04:28:19.821Z,4.53
2022-11-30T04:30:47.464Z,4.09
2022-11-30T04:33:16.045Z,4.33
2022-11-30T04:35:50.419Z,4.35
2022-11-30T04:38:17.712Z,4.22
2022-11-30T04:40:44.641Z,4.27
2022-11-30T04:43:12.986Z,4.02
2022-11-30T04:45:40.298Z,4.15
2022-11-30T04:48:08.451Z,4.08
2022-11-30T04:50:36.077Z,4.29
2022-11-30T04:53:03.446Z,4.29
2022-11-30T04:55:30.432Z,3.78
2022-11-30T04:57:57.439Z,3.59
2022-11-30T05:00:24.728Z,4.03
2022-11-30T05:02:53.092Z,4.44
2022-11-30T05:05:20.722Z,4.05
2022-11-30T05:07:51.807Z,4.20
2022-11-30T05:10:19.011Z,4.20
2022-11-30T05:12:45.891Z,4.22
2022-11-30T05:15:12.907Z,4.33
2022-11-30T05:17:39.857Z,4.32
2022-11-30T05:20:07.373Z,4.18
2022-11-30T05:22:35.369Z,4.26
2022-11-30T05:25:02.837Z,4.51
2022-11-30T05:27:29.887Z,4.47
2022-11-30T05:29:56.982Z,4.46
2022-11-30T05:32:23.843Z,4.25
2022-11-30T05:34:51.985Z,4.19
2022-11-30T05:37:20.047Z,4.26
2022-11-30T05:39:47.015Z,4.52
2022-11-30T05:42:14.020Z,4.61
2022-11-30T05:44:40.914Z,4.66
2022-11-30T05:47:07.832Z,4.60
2022-11-30T05:49:34.848Z,4.61
2022-11-30T05:52:01.847Z,4.30
2022-11-30T05:54:28.820Z,4.65
2022-11-30T05:56:55.762Z,4.70
2022-11-30T05:59:23.506Z,4.65
2022-11-30T06:01:53.069Z,4.41
2022-11-30T06:04:21.793Z,4.38
2022-11-30T06:06:49.697Z,4.39
2022-11-30T06:09:16.938Z,4.55
2022-11-30T06:11:43.937Z,4.56
2022-11-30T06:14:10.923Z,4.54
2022-11-30T06:16:41.183Z,4.72
2022-11-30T06:19:08.140Z,4.71
2022-11-30T06:21:35.299Z,4.61
2022-11-30T06:24:02.258Z,4.65
2022-11-30T06:26:29.234Z,4.76
2022-11-30T06:28:56.346Z,4.78
2022-11-30T06:31:23.453Z,4.63
2022-11-30T06:33:50.568Z,4.75
2022-11-30T06:36:22.821Z,4.65
2022-11-30T06:38:50.803Z,4.63
2022-11-30T06:41:17.808Z,4.84
2022-11-30T06:43:44.835Z,4.58
2022-11-30T06:46:11.957Z,4.71
2022-11-30T06:48:39.166Z,4.91
2022-11-30T06:51:10.672Z,4.91
2022-11-30T06:53:37.690Z,4.75
2022-11-30T06:56:10.754Z,4.85
2022-11-30T06:58:41.631Z,4.95
2022-11-30T07:01:11.382Z,4.85
2022-11-30T07:03:38.884Z,4.75
2022-11-30T07:06:11.316Z,4.98
2022-11-30T07:08:39.486Z,4.95
2022-11-30T07:11:07.518Z,4.96
2022-11-30T07:13:34.778Z,5.00
2022-11-30T07:16:06.762Z,5.04
2022-11-30T07:18:34.498Z,4.84
2022-11-30T07:21:02.633Z,4.87
2022-11-30T07:23:55.535Z,5.06
2022-11-30T07:26:23.513Z,4.96
2022-11-30T07:28:54.824Z,4.76
2022-11-30T07:31:23.758Z,4.83
2022-11-30T07:33:51.847Z,4.78
2022-11-30T07:36:20.421Z,4.89
2022-11-30T07:38:47.721Z,4.90
2022-11-30T07:41:14.778Z,5.19
2022-11-30T07:43:43.880Z,5.09
2022-11-30T07:46:13.635Z,5.09
2022-11-30T07:48:41.196Z,5.03
2022-11-30T07:51:13.124Z,4.77
2022-11-30T07:53:41.626Z,5.27
2022-11-30T07:56:11.555Z,5.29
2022-11-30T07:58:39.173Z,5.23
2022-11-30T08:01:09.209Z,5.27
2022-11-30T08:03:37.487Z,5.18
2022-11-30T08:06:07.676Z,5.17
2022-11-30T08:08:38.080Z,5.05
2022-11-30T08:11:06.942Z,4.95
2022-11-30T08:13:34.286Z,4.98
2022-11-30T08:16:07.059Z,4.93
2022-11-30T08:18:34.434Z,4.87
2022-11-30T08:21:04.056Z,4.93
2022-11-30T08:23:34.446Z,4.64
2022-11-30T08:26:16.461Z,4.74
2022-11-30T08:28:45.105Z,4.85
2022-11-30T08:31:16.152Z,4.63
2022-11-30T08:33:43.177Z,4.57
2022-11-30T08:36:16.587Z,4.67
2022-11-30T08:38:45.028Z,4.29
2022-11-30T08:41:14.398Z,4.62
2022-11-30T08:43:41.637Z,4.84
2022-11-30T08:52:15.941Z,4.35
2022-11-30T08:54:32.579Z,4.73
2022-11-30T08:56:59.546Z,4.80
2022-11-30T08:59:26.904Z,4.80
2022-11-30T09:01:53.845Z,4.82
2022-11-30T09:04:20.934Z,4.90
2022-11-30T09:06:48.101Z,4.67
2022-11-30T09:09:15.130Z,4.80
2022-11-30T09:11:42.049Z,4.55
2022-11-30T09:14:09.895Z,4.94
2022-11-30T09:16:36.947Z,4.71
2022-11-30T09:19:04.187Z,4.85
2022-11-30T09:21:31.268Z,4.84
2022-11-30T09:23:58.214Z,4.96
2022-11-30T09:26:25.749Z,4.69
2022-11-30T09:28:54.012Z,4.69
2022-11-30T09:31:26.807Z,4.81
2022-11-30T09:33:56.692Z,4.96
2022-11-30T09:36:27.418Z,4.96
2022-11-30T09:38:56.053Z,4.58
2022-11-30T09:41:22.923Z,4.86
2022-11-30T09:44:04.923Z,4.82
2022-11-30T09:46:49.605Z,4.56
2022-11-30T09:49:25.202Z,4.81
2022-11-30T09:51:55.711Z,4.77
2022-11-30T09:54:35.604Z,5.00
2022-11-30T09:57:17.244Z,5.03
2022-11-30T09:59:53.293Z,4.39
2022-11-30T10:02:22.525Z,4.64
2022-11-30T10:04:50.078Z,4.89
2022-11-30T10:07:45.154Z,5.25
2022-11-30T10:10:32.732Z,5.25
2022-11-30T10:13:23.261Z,5.22
2022-11-30T10:16:17.906Z,5.23
2022-11-30T10:19:05.607Z,5.19
2022-11-30T10:21:51.668Z,5.12
2022-11-30T10:24:47.403Z,4.98
2022-11-30T10:27:34.521Z,5.01
2022-11-30T10:30:02.390Z,5.31
2022-11-30T10:32:38.369Z,5.29
2022-11-30T10:35:41.591Z,5.29
2022-11-30T10:38:38.299Z,5.25
2022-11-30T10:41:21.982Z,5.29
2022-11-30T10:43:51.731Z,5.23
2022-11-30T10:46:22.919Z,5.27
2022-11-30T10:48:58.803Z,5.31
2022-11-30T10:51:27.376Z,5.17
2022-11-30T10:53:54.340Z,5.24
2022-11-30T10:56:21.360Z,5.31
2022-11-30T10:58:53.957Z,5.15
2022-11-30T11:01:30.234Z,5.44
2022-11-30T11:04:17.162Z,5.46
2022-11-30T11:06:57.005Z,5.40
2022-11-30T11:09:29.833Z,5.47
2022-11-30T11:12:18.536Z,5.41
2022-11-30T11:14:45.718Z,5.41
2022-11-30T11:17:18.865Z,5.48
2022-11-30T11:19:48.620Z,5.46
2022-11-30T11:22:31.163Z,5.53
2022-11-30T11:25:21.730Z,5.20
2022-11-30T11:27:55.479Z,5.53
2022-11-30T11:30:25.055Z,5.52
2022-11-30T11:33:00.371Z,5.42
2022-11-30T11:35:49.825Z,5.29
2022-11-30T11:38:29.594Z,5.32
2022-11-30T11:41:12.599Z,5.39
2022-11-30T11:44:22.532Z,5.43
2022-11-30T11:47:02.172Z,5.37
2022-11-30T11:49:32.581Z,5.12
2022-11-30T11:52:01.029Z,5.03
2022-11-30T11:54:43.096Z,5.34
2022-11-30T11:57:16.288Z,5.45
2022-11-30T12:00:05.679Z,5.43
2022-11-30T12:02:42.893Z,5.59
2022-11-30T12:05:32.988Z,5.62
2022-11-30T12:08:14.775Z,5.48
2022-11-30T12:10:52.126Z,5.45
2022-11-30T12:13:27.401Z,5.48
2022-11-30T12:16:14.595Z,5.48
2022-11-30T12:18:47.594Z,5.45
2022-11-30T12:21:29.700Z,5.48
2022-11-30T12:24:25.706Z,5.50
2022-11-30T12:27:12.736Z,5.52
2022-11-30T12:29:52.601Z,5.50
2022-11-30T12:32:31.695Z,5.49
2022-11-30T12:35:07.863Z,5.48
2022-11-30T12:37:59.115Z,5.54
2022-11-30T12:40:46.926Z,5.58
2022-11-30T12:43:19.980Z,5.68
2022-11-30T12:45:48.698Z,5.67
2022-11-30T12:48:57.026Z,5.70
2022-11-30T12:51:39.775Z,5.43
2022-11-30T12:54:26.621Z,5.62
2022-11-30T12:57:30.356Z,5.60
2022-11-30T13:00:14.296Z,5.56
2022-11-30T13:03:06.261Z,5.59
2022-11-30T13:05:43.617Z,5.44
2022-11-30T13:08:27.962Z,5.47
2022-11-30T13:11:00.440Z,5.20
2022-11-30T13:13:31.793Z,5.30
2022-11-30T13:16:01.167Z,5.45
2022-11-30T13:18:28.609Z,5.22
2022-11-30T13:21:10.780Z,5.45
2022-11-30T13:23:45.674Z,5.23
2022-11-30T13:26:34.371Z,5.48
2022-11-30T13:29:25.867Z,5.33
2022-11-30T13:32:05.606Z,5.39
2022-11-30T13:34:33.234Z,5.31
2022-11-30T13:37:23.119Z,5.43
2022-11-30T13:39:57.682Z,5.43
2022-11-30T13:42:36.908Z,5.26
2022-11-30T13:45:12.771Z,5.44
2022-11-30T13:47:56.487Z,5.53
2022-11-30T13:50:32.764Z,5.10
2022-11-30T13:53:08.660Z,5.41
2022-11-30T13:55:41.899Z,5.44
2022-11-30T13:58:11.715Z,5.31
2022-11-30T14:00:40.683Z,5.53
2022-11-30T14:06:44.074Z,5.50
2022-11-30T14:09:37.448Z,5.48
2022-11-30T14:12:37.022Z,5.55
2022-11-30T14:15:47.124Z,5.46
2022-11-30T14:18:20.234Z,5.18
2022-11-30T14:21:15.278Z,5.34
2022-11-30T14:23:48.258Z,5.31
2022-11-30T14:26:18.180Z,5.34
2022-11-30T14:29:09.999Z,5.35
2022-11-30T14:31:48.090Z,5.20
2022-11-30T14:34:21.413Z,5.26
2022-11-30T14:36:52.997Z,5.19
2022-11-30T14:39:43.929Z,5.25
2022-11-30T14:42:26.396Z,5.38
2022-11-30T14:44:54.354Z,5.36
2022-11-30T14:47:26.027Z,5.38
2022-11-30T14:49:56.495Z,5.36
2022-11-30T14:52:38.210Z,5.22
2022-11-30T14:55:08.450Z,5.45
2022-11-30T14:58:04.030Z,5.53
2022-11-30T15:00:39.799Z,5.55
2022-11-30T15:03:27.285Z,5.51
2022-11-30T15:05:57.186Z,5.36
2022-11-30T15:08:34.804Z,5.50
2022-11-30T15:11:08.690Z,5.47
2022-11-30T15:13:43.260Z,5.38
2022-11-30T15:16:21.852Z,5.28
2022-11-30T15:18:49.510Z,5.18
2022-11-30T15:21:25.190Z,5.65
2022-11-30T15:23:54.445Z,5.73
2022-11-30T15:26:23.833Z,5.72
2022-11-30T15:28:57.506Z,5.67
2022-11-30T15:31:25.482Z,5.26
2022-11-30T15:33:52.396Z,5.31
2022-11-30T15:36:32.600Z,5.37
2022-11-30T15:39:06.451Z,5.25
2022-11-30T15:41:35.355Z,5.37
2022-11-30T15:44:02.601Z,5.49
2022-11-30T15:46:30.959Z,5.57
2022-11-30T15:49:15.514Z,5.62
2022-11-30T15:51:47.516Z,5.28
2022-11-30T15:54:15.526Z,5.57
2022-11-30T15:56:55.695Z,5.58
2022-11-30T15:59:29.063Z,5.15
2022-11-30T16:02:14.438Z,5.53
2022-11-30T16:04:56.734Z,5.53
2022-11-30T16:07:28.415Z,5.27
2022-11-30T16:10:11.394Z,5.25
2022-11-30T16:12:38.349Z,5.53
2022-11-30T16:15:18.007Z,5.55
2022-11-30T16:17:45.024Z,5.49
2022-11-30T16:20:14.088Z,5.54
2022-11-30T16:22:42.483Z,5.31
2022-11-30T16:25:20.574Z,5.37
2022-11-30T16:27:48.271Z,5.53
2022-11-30T16:30:17.913Z,5.44
2022-11-30T16:32:45.186Z,5.59
2022-11-30T16:35:14.892Z,5.60
2022-11-30T16:37:41.833Z,5.49
2022-11-30T16:40:09.221Z,5.58
2022-11-30T16:42:36.184Z,5.42
2022-11-30T16:45:03.218Z,5.39
2022-11-30T16:47:30.198Z,5.55
2022-11-30T16:49:57.268Z,5.38
2022-11-30T16:52:24.312Z,5.51
2022-11-30T16:54:51.205Z,5.39
2022-11-30T16:57:18.150Z,5.31
2022-11-30T16:59:45.301Z,5.40
2022-11-30T17:02:18.853Z,5.60
2022-11-30T17:04:46.659Z,5.66
2022-11-30T17:07:14.189Z,5.49
2022-11-30T17:09:41.092Z,5.64
2022-11-30T17:12:09.677Z,5.40
2022-11-30T17:14:36.691Z,5.39
2022-11-30T17:17:03.744Z,5.44
2022-11-30T17:19:30.728Z,5.57
2022-11-30T17:21:57.696Z,5.49
2022-11-30T17:24:24.615Z,5.40
2022-11-30T17:26:51.550Z,5.02
2022-11-30T17:29:18.525Z,5.59
2022-11-30T17:31:45.820Z,5.21
2022-11-30T17:34:12.795Z,5.22
2022-11-30T17:36:39.765Z,5.20
2022-11-30T17:39:07.985Z,5.39
2022-11-30T17:41:35.179Z,5.19
2022-11-30T17:44:03.170Z,5.24
2022-11-30T17:46:30.303Z,5.15
2022-11-30T17:48:57.469Z,5.29
2022-11-30T17:51:24.527Z,5.23
2022-11-30T17:53:51.538Z,5.21
2022-11-30T17:56:18.477Z,5.31
2022-11-30T17:58:46.470Z,5.28
2022-11-30T18:01:18.571Z,5.26
2022-11-30T18:03:46.230Z,5.45
2022-11-30T18:06:13.628Z,5.40
2022-11-30T18:08:40.699Z,5.34
2022-11-30T18:11:12.365Z,5.47
2022-11-30T18:13:40.227Z,5.48
2022-11-30T18:16:08.389Z,5.39
2022-11-30T18:18:35.424Z,5.42
2022-11-30T18:21:06.548Z,5.32
2022-11-30T18:23:35.158Z,5.37
2022-11-30T18:26:04.314Z,5.32
2022-11-30T18:28:31.771Z,5.51
2022-11-30T18:30:59.005Z,5.30
2022-11-30T18:33:26.215Z,5.31
2022-11-30T18:36:01.081Z,5.37
2022-11-30T18:38:31.525Z,5.18
2022-11-30T18:41:01.275Z,5.07
2022-11-30T18:43:30.606Z,5.34
2022-11-30T18:46:08.606Z,4.95
2022-11-30T18:48:36.819Z,4.73
2022-11-30T18:51:15.691Z,4.89
2022-11-30T18:53:43.289Z,5.10
2022-11-30T18:56:15.913Z,4.96
2022-11-30T18:58:43.789Z,4.95
2022-11-30T19:01:14.971Z,4.96
2022-11-30T19:03:42.242Z,4.64
2022-11-30T19:06:10.928Z,5.04
2022-11-30T19:08:39.790Z,4.94
2022-11-30T19:11:09.603Z,4.80
2022-11-30T19:13:37.423Z,4.96
2022-11-30T19:16:13.694Z,4.84
2022-11-30T19:18:40.827Z,4.72
2022-11-30T19:21:19.298Z,5.12
2022-11-30T19:23:47.086Z,4.92
2022-11-30T19:26:14.818Z,5.02
2022-11-30T19:28:43.413Z,5.10
2022-11-30T19:31:13.667Z,4.95
2022-11-30T19:33:42.331Z,4.82
2022-11-30T19:36:17.362Z,5.07
2022-11-30T19:38:44.658Z,4.90
2022-11-30T19:41:13.344Z,5.12
2022-11-30T19:43:41.251Z,4.79
2022-11-30T19:46:12.058Z,4.56
2022-11-30T19:48:40.431Z,4.83
2022-11-30T19:51:13.409Z,4.55
2022-11-30T19:53:44.292Z,4.73
2022-11-30T19:56:15.076Z,4.74
2022-11-30T19:58:44.078Z,4.98
2022-11-30T20:01:16.121Z,4.86
2022-11-30T20:03:44.583Z,4.60
2022-11-30T20:06:11.965Z,4.60
2022-11-30T20:08:39.069Z,4.95
2022-11-30T20:11:11.263Z,4.90
2022-11-30T20:13:40.845Z,4.44
2022-11-30T20:16:12.943Z,4.71
2022-11-30T20:18:45.506Z,4.84
2022-11-30T20:21:24.796Z,4.30
2022-11-30T20:23:53.462Z,4.45
2022-11-30T20:26:30.332Z,4.37
2022-11-30T20:28:58.658Z,4.12
2022-11-30T20:31:26.460Z,4.60
2022-11-30T20:33:54.001Z,4.28
2022-11-30T20:36:21.891Z,4.22
2022-11-30T20:38:48.943Z,4.45
2022-11-30T20:41:18.350Z,4.60
2022-11-30T20:43:46.443Z,4.65
2022-11-30T20:46:21.330Z,4.64
2022-11-30T20:48:49.347Z,4.38
2022-11-30T20:51:31.237Z,4.44
2022-11-30T20:54:07.187Z,4.45
2022-11-30T20:56:36.691Z,4.47
2022-11-30T20:59:12.413Z,4.22
2022-11-30T21:01:42.252Z,4.69
2022-11-30T21:04:09.657Z,4.28
2022-11-30T21:06:36.930Z,4.50
2022-11-30T21:09:04.616Z,4.37
2022-11-30T21:11:31.789Z,4.31
2022-11-30T21:13:58.920Z,4.24
2022-11-30T21:16:29.107Z,4.28
2022-11-30T21:18:58.835Z,4.50
2022-11-30T21:21:28.843Z,4.40
2022-11-30T21:24:02.379Z,4.28
2022-11-30T21:26:32.171Z,4.50
2022-11-30T21:29:12.206Z,4.20
2022-11-30T21:31:39.678Z,4.26
2022-11-30T21:34:06.971Z,4.61
2022-11-30T21:36:33.967Z,4.21
2022-11-30T21:39:06.797Z,4.26
2022-11-30T21:41:39.069Z,4.44
2022-11-30T21:44:08.342Z,4.57
2022-11-30T21:46:35.468Z,4.48
2022-11-30T21:49:03.159Z,4.51
2022-11-30T21:51:32.101Z,4.52
2022-11-30T21:54:01.629Z,4.16
2022-11-30T21:56:31.312Z,4.47
2022-11-30T21:58:59.051Z,4.33
2022-11-30T22:01:30.186Z,4.72
2022-11-30T22:03:59.207Z,3.87
2022-11-30T22:06:28.064Z,4.27
2022-11-30T22:09:03.368Z,4.31
2022-11-30T22:11:31.610Z,4.34
2022-11-30T22:13:58.838Z,4.23
2022-11-30T22:16:32.386Z,4.38
2022-11-30T22:19:02.928Z,4.43
2022-11-30T22:21:31.469Z,4.30
2022-11-30T22:24:00.535Z,3.84
2022-11-30T22:26:29.600Z,4.02
2022-11-30T22:29:11.213Z,4.36
2022-11-30T22:31:40.819Z,4.21
2022-11-30T22:34:08.362Z,4.39
2022-11-30T22:36:37.634Z,4.35
2022-11-30T22:39:16.841Z,4.29
2022-11-30T22:41:45.557Z,4.08
2022-11-30T22:44:17.040Z,4.06
2022-11-30T22:46:44.712Z,4.25
2022-11-30T22:49:21.118Z,4.20
2022-11-30T22:51:49.596Z,4.12
2022-11-30T22:54:16.882Z,4.05
2022-11-30T22:56:44.917Z,4.33
2022-11-30T22:59:13.158Z,4.39
2022-11-30T23:01:44.487Z,4.43
2022-11-30T23:04:14.053Z,4.38
2022-11-30T23:06:42.954Z,4.37
2022-11-30T23:09:16.932Z,4.47
2022-11-30T23:11:44.445Z,4.58
2022-11-30T23:14:12.377Z,4.71
2022-11-30T23:16:40.153Z,4.55
2022-11-30T23:19:07.757Z,4.36
2022-11-30T23:21:40.923Z,4.56
2022-11-30T23:24:12.936Z,4.49
2022-11-30T23:26:39.869Z,4.44
2022-11-30T23:29:10.047Z,4.30
2022-11-30T23:31:39.696Z,4.61
2022-11-30T23:34:09.946Z,4.73
2022-11-30T23:36:37.103Z,4.75
2022-11-30T23:39:09.775Z,4.75
2022-11-30T23:41:37.136Z,4.76
2022-11-30T23:44:04.902Z,4.64
2022-11-30T23:46:31.880Z,4.59
2022-11-30T23:48:58.882Z,4.69
2022-11-30T23:51:26.206Z,4.91
2022-11-30T23:53:53.887Z,4.76
2022-11-30T23:56:22.468Z,4.88
2022-11-30T23:58:50.458Z,4.98
